Terminal Aerodrome Forecast
Issued by NWS Lake Charles, LA

Home | Current Version | Previous Version | Text Only | Print | Product List | Glossary On
Versions: 1 2 3 4 5 6 7 8 9 10 11 12 13 14 15 16 17 18 19 20 21 22
000
FTUS44 KLCH 021200 AAA
TAFBPT
TAF AMD
KBPT 021205Z 0212/0312 01005KT 3SM -RA BR OVC005
      TEMPO 0214/0217 1/2SM FG VV002
     FM021700 04007KT 1/2SM -RA FG OVC002
     FM030000 08007KT 1SM BR OVC004=

USA.gov is the U.S. government's official web portal to all federal, state and local government web resources and services.